Time;durP1;ratioP1;P1;durP2;ratioP2;P2;SDS_P1;SDS_P2;PMS_P1;PMS_P2;Temp;Humidity;BMP_temperature;BMP_pressure;BME280_temperature;BME280_humidity;BME280_pressure;Samples;Min_cycle;Max_cycle;Signal;HPM_P1;HPM_P2
2022/08/25 00:00:30;;;;;;;9.05;7.15;;;21.40;99.90;;;;;;4949458;28;20199;-71
2022/08/25 00:02:56;;;;;;;12.02;7.50;;;21.40;99.90;;;;;;4953296;28;20302;-71
2022/08/25 00:05:25;;;;;;;10.88;7.43;;;21.40;99.90;;;;;;4946294;28;20776;-71
2022/08/25 00:07:50;;;;;;;8.25;7.05;;;21.40;99.90;;;;;;4946672;28;20218;-71
2022/08/25 00:10:16;;;;;;;11.25;7.75;;;21.50;99.90;;;;;;4951363;28;20388;-71
2022/08/25 00:12:41;;;;;;;11.60;7.13;;;21.40;99.90;;;;;;4949390;28;20586;-71
2022/08/25 00:15:08;;;;;;;11.55;7.97;;;21.50;99.90;;;;;;4944790;28;20281;-71
2022/08/25 00:17:34;;;;;;;9.57;7.53;;;21.50;99.90;;;;;;4951796;28;20677;-71
2022/08/25 00:20:00;;;;;;;14.13;7.82;;;21.50;99.90;;;;;;4950723;28;20246;-71
2022/08/25 00:22:25;;;;;;;9.95;7.97;;;21.50;99.90;;;;;;4949984;28;20230;-71
2022/08/25 00:24:51;;;;;;;11.32;8.23;;;21.50;99.90;;;;;;4943056;28;20187;-71
2022/08/25 00:27:16;;;;;;;10.80;8.13;;;21.40;99.90;;;;;;4952855;28;20569;-71
2022/08/25 00:29:42;;;;;;;13.05;8.07;;;21.40;99.90;;;;;;4948658;28;20589;-71
2022/08/25 00:32:08;;;;;;;10.35;7.82;;;21.40;99.90;;;;;;4946309;28;20238;-71
2022/08/25 00:34:37;;;;;;;9.90;7.65;;;21.30;99.90;;;;;;4947787;28;20631;-71
2022/08/25 00:37:08;;;;;;;10.13;7.50;;;21.30;99.90;;;;;;4952375;28;20193;-71
2022/08/25 00:39:35;;;;;;;10.07;7.45;;;21.30;99.90;;;;;;4946604;28;20705;-70
2022/08/25 00:42:02;;;;;;;12.23;7.50;;;21.30;99.90;;;;;;4946492;28;20289;-70
2022/08/25 00:44:29;;;;;;;12.18;7.80;;;21.20;99.90;;;;;;4950474;28;20211;-70
2022/08/25 00:46:58;;;;;;;10.52;7.93;;;21.20;99.90;;;;;;4952176;28;20747;-71
2022/08/25 00:49:36;;;;;;;8.38;6.90;;;21.30;99.90;;;;;;4943353;28;20300;-71
2022/08/25 00:52:03;;;;;;;14.27;7.20;;;21.30;99.90;;;;;;4949231;28;20577;-71
2022/08/25 00:54:42;;;;;;;12.60;7.78;;;21.30;99.90;;;;;;4949006;28;20283;-71
2022/08/25 00:57:11;;;;;;;10.82;8.38;;;21.20;99.90;;;;;;4946339;28;20775;-70
2022/08/25 00:59:37;;;;;;;11.70;8.30;;;21.10;99.90;;;;;;4947424;28;20660;-70
2022/08/25 01:02:06;;;;;;;13.02;7.63;;;21.10;99.90;;;;;;4952140;28;20242;-71
2022/08/25 01:04:31;;;;;;;13.23;7.82;;;21.00;99.90;;;;;;4945014;28;20216;-70
2022/08/25 01:06:58;;;;;;;10.20;7.35;;;21.00;99.90;;;;;;4945669;28;20282;-71
2022/08/25 01:09:24;;;;;;;12.18;7.95;;;21.00;99.90;;;;;;4948560;28;20187;-70
2022/08/25 01:11:50;;;;;;;14.75;7.95;;;21.00;99.90;;;;;;4949454;28;20281;-70
2022/08/25 01:14:18;;;;;;;8.68;7.35;;;21.00;99.90;;;;;;4945047;28;20218;-71
2022/08/25 01:16:44;;;;;;;10.52;7.28;;;21.00;99.90;;;;;;4948694;28;20243;-70
2022/08/25 01:19:12;;;;;;;10.48;7.75;;;21.00;99.90;;;;;;4950297;28;20226;-71
2022/08/25 01:21:45;;;;;;;12.57;7.70;;;21.00;99.90;;;;;;4951053;28;20200;-72
2022/08/25 01:24:17;;;;;;;13.38;8.07;;;21.10;99.90;;;;;;4942820;28;20596;-71
2022/08/25 01:26:43;;;;;;;12.98;7.63;;;21.00;99.90;;;;;;4950904;28;20211;-71
2022/08/25 01:29:21;;;;;;;10.75;7.93;;;21.10;99.90;;;;;;4948418;28;20214;-72
2022/08/25 01:32:08;;;;;;;12.85;8.02;;;21.00;99.90;;;;;;4944447;28;20221;-71
2022/08/25 01:34:36;;;;;;;13.82;7.47;;;21.10;99.90;;;;;;4944339;28;20215;-71
2022/08/25 01:37:03;;;;;;;8.27;7.07;;;21.00;99.90;;;;;;4946011;28;20194;-71
2022/08/25 01:39:32;;;;;;;9.85;7.70;;;20.90;99.90;;;;;;4944967;28;20732;-71
2022/08/25 01:42:10;;;;;;;10.70;8.02;;;20.90;99.90;;;;;;4945342;28;20211;-72
2022/08/25 01:44:39;;;;;;;15.02;7.85;;;20.90;99.90;;;;;;4949513;28;20812;-71
2022/08/25 01:47:06;;;;;;;11.32;7.63;;;20.90;99.90;;;;;;4946176;28;20965;-71
2022/08/25 01:49:32;;;;;;;9.18;7.47;;;20.90;99.90;;;;;;4943314;28;20208;-72
2022/08/25 01:52:13;;;;;;;12.32;7.93;;;20.90;99.90;;;;;;4947741;28;20199;-71
2022/08/25 01:54:39;;;;;;;10.85;7.22;;;20.90;99.90;;;;;;4948318;28;20271;-71
2022/08/25 01:57:05;;;;;;;11.35;7.63;;;20.90;99.90;;;;;;4945778;28;20302;-71
2022/08/25 01:59:31;;;;;;;10.77;8.05;;;20.80;99.90;;;;;;4945687;28;20225;-71
2022/08/25 02:01:56;;;;;;;12.40;8.20;;;20.90;99.90;;;;;;4949935;28;20731;-72
2022/08/25 02:04:22;;;;;;;11.48;8.20;;;20.90;99.90;;;;;;4945497;28;20216;-72
2022/08/25 02:06:48;;;;;;;12.38;8.25;;;20.90;99.90;;;;;;4950746;28;20178;-72
2022/08/25 02:09:15;;;;;;;13.30;8.38;;;20.80;99.90;;;;;;4947822;28;20184;-72
2022/08/25 02:11:45;;;;;;;10.95;7.97;;;20.80;99.90;;;;;;4947908;28;20735;-71
2022/08/25 02:14:13;;;;;;;10.02;8.15;;;20.90;99.90;;;;;;4945170;28;20317;-70
2022/08/25 02:16:40;;;;;;;14.30;7.72;;;20.80;99.90;;;;;;4938594;28;20620;-69
2022/08/25 02:19:09;;;;;;;15.23;8.32;;;20.90;99.90;;;;;;4942853;28;20230;-71
2022/08/25 02:21:35;;;;;;;17.15;8.77;;;20.80;99.90;;;;;;4945381;28;20227;-71
2022/08/25 02:24:01;;;;;;;13.70;8.25;;;20.90;99.90;;;;;;4946788;28;20215;-71
2022/08/25 02:26:27;;;;;;;16.15;8.15;;;20.80;99.90;;;;;;4947902;28;20716;-70
2022/08/25 02:28:53;;;;;;;15.57;8.20;;;20.80;99.90;;;;;;4948488;28;20215;-70
2022/08/25 02:31:21;;;;;;;14.35;9.68;;;20.70;99.90;;;;;;4941987;28;20219;-71
2022/08/25 02:33:47;;;;;;;11.48;7.90;;;20.70;99.90;;;;;;4944037;28;20194;-70
2022/08/25 02:36:13;;;;;;;15.23;8.15;;;20.70;99.90;;;;;;4949554;28;20660;-71
2022/08/25 02:38:39;;;;;;;11.32;8.43;;;20.70;99.90;;;;;;4945613;28;20234;-71
2022/08/25 02:41:18;;;;;;;12.65;10.15;;;20.60;99.90;;;;;;4943246;28;20215;-71
2022/08/25 02:43:45;;;;;;;17.27;12.15;;;20.60;99.90;;;;;;4949678;28;20203;-70
2022/08/25 02:46:11;;;;;;;17.33;13.68;;;20.60;99.90;;;;;;4947262;28;20211;-71
2022/08/25 02:48:38;;;;;;;13.45;8.98;;;20.60;99.90;;;;;;4944371;28;20203;-71
2022/08/25 02:51:08;;;;;;;15.10;8.50;;;20.60;99.90;;;;;;4943911;28;20700;-71
2022/08/25 02:53:37;;;;;;;12.18;8.73;;;20.50;99.90;;;;;;4947412;28;20594;-71
2022/08/25 02:56:03;;;;;;;14.63;10.93;;;20.60;99.90;;;;;;4945083;28;20265;-71
2022/08/25 02:58:29;;;;;;;24.40;16.38;;;20.60;99.90;;;;;;4941488;28;20214;-71
2022/08/25 03:00:55;;;;;;;16.52;9.77;;;20.50;99.90;;;;;;4950246;28;20210;-70
2022/08/25 03:03:21;;;;;;;15.80;11.15;;;20.40;99.90;;;;;;4948228;28;20266;-70
2022/08/25 03:05:46;;;;;;;21.20;14.80;;;20.40;99.90;;;;;;4945716;28;20720;-71
2022/08/25 03:08:12;;;;;;;15.98;10.90;;;20.40;99.90;;;;;;4944145;28;20218;-73
2022/08/25 03:10:38;;;;;;;16.95;9.02;;;20.40;99.90;;;;;;4948054;28;20638;-70
2022/08/25 03:13:04;;;;;;;14.27;9.30;;;20.40;99.90;;;;;;4946886;28;20297;-72
2022/08/25 03:15:30;;;;;;;12.13;8.82;;;20.30;99.90;;;;;;4943290;28;20262;-70
2022/08/25 03:17:56;;;;;;;12.73;8.77;;;20.30;99.90;;;;;;4946050;28;20226;-71
2022/08/25 03:20:23;;;;;;;12.25;9.02;;;20.20;99.90;;;;;;4946601;28;20230;-70
2022/08/25 03:22:49;;;;;;;15.60;9.38;;;20.10;99.90;;;;;;4948524;28;20211;-72
2022/08/25 03:28:00;;;;;;;13.38;9.40;;;20.20;99.90;;;;;;4944437;28;20190;-72
2022/08/25 03:30:26;;;;;;;13.23;9.43;;;20.20;99.90;;;;;;4945081;28;20232;-71
2022/08/25 03:32:51;;;;;;;12.85;9.30;;;20.20;99.90;;;;;;4946904;28;20214;-72
2022/08/25 03:35:17;;;;;;;13.82;8.95;;;20.20;99.90;;;;;;4950767;28;20281;-71
2022/08/25 03:37:43;;;;;;;13.10;9.35;;;20.20;99.90;;;;;;4951014;28;20206;-71
2022/08/25 03:40:11;;;;;;;14.57;10.05;;;20.20;99.90;;;;;;4947917;28;20245;-72
2022/08/25 03:42:42;;;;;;;11.05;8.93;;;20.10;99.90;;;;;;4953788;28;20212;-71
2022/08/25 03:45:10;;;;;;;14.77;9.20;;;20.10;99.90;;;;;;4952283;28;20618;-71
2022/08/25 03:47:37;;;;;;;14.82;9.80;;;20.10;99.90;;;;;;4948922;28;20693;-71
2022/08/25 03:50:05;;;;;;;15.20;9.10;;;20.10;99.90;;;;;;4946605;28;20268;-71
2022/08/25 03:52:30;;;;;;;12.52;9.70;;;20.20;99.90;;;;;;4950388;28;20246;-70
2022/08/25 03:54:56;;;;;;;12.68;9.75;;;20.10;99.90;;;;;;4951636;28;20191;-71
2022/08/25 03:57:21;;;;;;;12.98;10.55;;;20.20;99.90;;;;;;4947150;28;20180;-71
2022/08/25 03:59:47;;;;;;;16.25;10.25;;;20.10;99.90;;;;;;4950593;28;20215;-71
2022/08/25 04:02:13;;;;;;;15.20;9.52;;;20.10;99.90;;;;;;4952103;28;20219;-71
2022/08/25 04:04:39;;;;;;;16.50;10.52;;;20.10;99.90;;;;;;4949105;28;20215;-71
2022/08/25 04:07:05;;;;;;;13.35;10.35;;;20.10;99.90;;;;;;4946641;28;20321;-71
2022/08/25 04:09:30;;;;;;;16.25;10.68;;;20.10;99.90;;;;;;4951572;28;20225;-70
2022/08/25 04:11:56;;;;;;;12.63;10.20;;;20.20;99.90;;;;;;4977431;23;21165;-72
2022/08/25 04:14:22;;;;;;;17.75;11.77;;;20.10;99.90;;;;;;4996243;28;20224;-71
2022/08/25 04:16:48;;;;;;;14.38;10.00;;;20.10;99.90;;;;;;4991924;28;20240;-72
2022/08/25 04:19:13;;;;;;;14.95;10.80;;;20.20;99.90;;;;;;4991183;28;20604;-73
2022/08/25 04:21:40;;;;;;;17.60;12.48;;;20.20;99.90;;;;;;4992250;28;20185;-72
2022/08/25 04:24:08;;;;;;;17.67;12.68;;;20.20;99.90;;;;;;4985413;28;20217;-73
2022/08/25 04:26:37;;;;;;;18.50;12.82;;;20.10;99.90;;;;;;4990766;28;20295;-73
2022/08/25 04:29:05;;;;;;;21.13;13.68;;;20.10;99.90;;;;;;4989994;28;20679;-70
2022/08/25 04:31:31;;;;;;;18.23;13.18;;;20.20;99.90;;;;;;4986440;28;20210;-71
2022/08/25 04:33:57;;;;;;;21.67;12.75;;;20.20;99.90;;;;;;4985115;28;20637;-72
2022/08/25 04:36:23;;;;;;;26.23;15.55;;;20.30;99.90;;;;;;4990659;28;20268;-71
2022/08/25 04:38:49;;;;;;;24.75;15.52;;;20.30;99.90;;;;;;4988468;28;20205;-72
2022/08/25 04:41:18;;;;;;;22.65;16.75;;;20.30;99.90;;;;;;4984394;28;20289;-72
2022/08/25 04:43:44;;;;;;;22.95;16.17;;;20.10;99.90;;;;;;4991238;28;20212;-71
2022/08/25 04:46:25;;;;;;;23.42;15.68;;;20.00;99.90;;;;;;4990325;28;20214;-71
2022/08/25 04:48:52;;;;;;;24.95;17.10;;;20.10;99.90;;;;;;4987776;28;20185;-73
2022/08/25 04:51:24;;;;;;;22.77;16.30;;;20.10;99.90;;;;;;4986015;28;20182;-72
2022/08/25 04:53:50;;;;;;;21.50;15.77;;;20.10;99.90;;;;;;4990235;28;20233;-71
2022/08/25 04:56:18;;;;;;;25.45;17.10;;;20.20;99.90;;;;;;4986341;28;20213;-72
2022/08/25 04:58:47;;;;;;;24.98;17.38;;;20.20;99.90;;;;;;4985547;28;20744;-71
2022/08/25 05:01:15;;;;;;;23.95;15.90;;;20.20;99.90;;;;;;4985731;28;20247;-71
2022/08/25 05:03:42;;;;;;;24.85;16.92;;;20.30;99.90;;;;;;4988733;28;20224;-71
2022/08/25 05:06:08;;;;;;;24.45;16.83;;;20.20;99.90;;;;;;4984372;28;20264;-71
2022/08/25 05:08:34;;;;;;;26.30;16.95;;;20.30;99.90;;;;;;4986571;28;20313;-71
2022/08/25 05:11:08;;;;;;;27.13;17.17;;;20.30;99.90;;;;;;4990455;28;20206;-72
2022/08/25 05:13:34;;;;;;;27.27;17.85;;;20.50;99.90;;;;;;4985684;28;20738;-70
2022/08/25 05:16:00;;;;;;;27.83;18.00;;;20.40;99.90;;;;;;4983270;28;20182;-72
2022/08/25 05:18:28;;;;;;;27.58;18.10;;;20.30;99.90;;;;;;4988406;28;20174;-71
2022/08/25 05:20:55;;;;;;;27.75;17.70;;;20.40;99.90;;;;;;4990879;28;20694;-72
2022/08/25 05:23:22;;;;;;;21.40;15.43;;;20.50;99.90;;;;;;4983182;28;20218;-71
2022/08/25 05:25:50;;;;;;;23.90;16.63;;;20.50;99.90;;;;;;4991197;28;20213;-71
2022/08/25 05:28:16;;;;;;;22.38;16.98;;;20.50;99.90;;;;;;4988771;28;20205;-72
2022/08/25 05:30:43;;;;;;;24.38;15.38;;;20.40;99.90;;;;;;4986510;28;20285;-72
2022/08/25 05:33:10;;;;;;;18.58;14.70;;;20.40;99.90;;;;;;5002379;28;20224;-72
2022/08/25 05:35:36;;;;;;;24.42;16.13;;;20.60;99.90;;;;;;5010840;28;20213;-73
2022/08/25 05:38:03;;;;;;;24.23;16.75;;;20.70;99.90;;;;;;5007987;28;20209;-72
2022/08/25 05:40:29;;;;;;;26.35;18.25;;;20.80;99.90;;;;;;5002988;28;20299;-72
2022/08/25 05:42:55;;;;;;;21.60;14.88;;;20.60;99.90;;;;;;5007531;28;20208;-73
2022/08/25 05:45:21;;;;;;;23.65;17.55;;;20.60;99.90;;;;;;5007367;28;20181;-70
2022/08/25 05:47:47;;;;;;;28.20;18.17;;;20.50;99.90;;;;;;5005739;28;20228;-72
2022/08/25 05:50:13;;;;;;;26.10;16.05;;;20.40;99.90;;;;;;5001493;28;20220;-72
2022/08/25 05:52:39;;;;;;;20.70;16.45;;;20.40;99.90;;;;;;5008847;28;20299;-72
2022/08/25 05:55:06;;;;;;;28.67;18.10;;;20.40;99.90;;;;;;5007035;28;20258;-72
2022/08/25 05:57:32;;;;;;;23.08;17.88;;;20.30;99.90;;;;;;5002558;28;20174;-73
2022/08/25 05:59:58;;;;;;;24.02;18.63;;;20.30;99.90;;;;;;5009776;28;20247;-71
2022/08/25 06:05:24;;;;;;;19.33;14.30;;;20.40;99.90;;;;;;5007822;28;20212;-71
2022/08/25 06:07:51;;;;;;;21.15;15.85;;;20.40;99.90;;;;;;5006989;28;20603;-72
2022/08/25 06:10:18;;;;;;;19.13;14.98;;;20.60;99.90;;;;;;5009458;28;20209;-73
2022/08/25 06:12:44;;;;;;;23.02;15.35;;;20.50;99.90;;;;;;5006732;28;20768;-73
2022/08/25 06:15:20;;;;;;;19.80;14.27;;;20.50;99.90;;;;;;5008874;28;20204;-72
2022/08/25 06:17:47;;;;;;;21.48;15.45;;;20.60;99.90;;;;;;5012022;28;20295;-73
2022/08/25 06:20:18;;;;;;;18.77;15.23;;;20.50;99.90;;;;;;5008436;28;20732;-72
2022/08/25 06:22:44;;;;;;;21.10;15.85;;;20.50;99.90;;;;;;5005415;28;20208;-73
2022/08/25 06:25:12;;;;;;;19.85;15.27;;;20.50;99.90;;;;;;5003999;28;20239;-73
2022/08/25 06:27:39;;;;;;;22.23;15.52;;;20.40;99.90;;;;;;5009208;28;20199;-74
2022/08/25 06:30:08;;;;;;;23.67;15.85;;;20.60;99.90;;;;;;5004148;28;20211;-72
2022/08/25 06:32:35;;;;;;;23.00;17.10;;;20.50;99.90;;;;;;5003865;28;20244;-74
2022/08/25 06:35:03;;;;;;;26.48;17.58;;;20.40;99.90;;;;;;5006089;28;20204;-73
2022/08/25 06:37:29;;;;;;;24.63;17.35;;;20.40;99.90;;;;;;5006405;28;20240;-71
2022/08/25 06:39:54;;;;;;;26.25;17.00;;;20.40;99.90;;;;;;5006480;28;20212;-73
2022/08/25 06:42:20;;;;;;;23.83;17.30;;;20.50;99.90;;;;;;5004039;28;20629;-72
2022/08/25 06:44:46;;;;;;;26.10;16.58;;;20.60;99.90;;;;;;5009086;28;20208;-72
2022/08/25 06:47:11;;;;;;;21.98;15.40;;;20.60;99.90;;;;;;5006549;28;20232;-73
2022/08/25 06:49:37;;;;;;;26.80;18.50;;;20.70;99.90;;;;;;5003198;28;20719;-73
2022/08/25 06:52:03;;;;;;;23.00;16.50;;;20.70;99.90;;;;;;5008704;28;20244;-72
2022/08/25 06:54:28;;;;;;;24.20;16.67;;;20.80;99.90;;;;;;5006538;28;20260;-72
2022/08/25 06:56:54;;;;;;;26.40;17.15;;;20.80;99.90;;;;;;5008384;28;20220;-72
2022/08/25 06:59:20;;;;;;;28.65;19.85;;;20.70;99.90;;;;;;5003005;28;20263;-72
2022/08/25 07:01:45;;;;;;;31.67;18.60;;;20.60;99.90;;;;;;5009424;28;20220;-73
2022/08/25 07:04:11;;;;;;;26.60;17.17;;;20.70;99.90;;;;;;5006623;28;20235;-73
2022/08/25 07:06:37;;;;;;;27.52;19.42;;;20.70;99.90;;;;;;5008254;28;20182;-73
2022/08/25 07:09:05;;;;;;;27.40;18.67;;;20.80;99.90;;;;;;5007857;28;20259;-74
2022/08/25 07:11:33;;;;;;;26.30;18.38;;;20.70;99.90;;;;;;5008650;28;20205;-72
2022/08/25 07:14:00;;;;;;;25.48;17.85;;;20.70;99.90;;;;;;5001297;28;20736;-70
2022/08/25 07:16:26;;;;;;;25.45;18.02;;;20.80;99.90;;;;;;5010691;28;20216;-69
2022/08/25 07:18:55;;;;;;;27.77;18.08;;;20.80;99.90;;;;;;5006760;28;20196;-68
2022/08/25 07:21:24;;;;;;;23.55;18.05;;;20.90;99.90;;;;;;4987015;28;20178;-71
2022/08/25 07:23:50;;;;;;;25.20;17.15;;;21.00;99.90;;;;;;4986665;28;20265;-68
2022/08/25 07:26:22;;;;;;;24.80;17.88;;;21.10;99.90;;;;;;4986289;28;20205;-69
2022/08/25 07:28:48;;;;;;;25.92;19.42;;;21.20;99.90;;;;;;4987924;28;20205;-70
2022/08/25 07:31:14;;;;;;;27.08;21.20;;;21.30;99.90;;;;;;4983950;28;20236;-69
2022/08/25 07:35:14;;;;;;;25.25;17.95;;;21.40;99.90;;;;;;4983383;28;20202;-69
2022/08/25 07:36:31;;;;;;;27.80;17.65;;;21.30;99.90;;;;;;5005948;28;20255;-69
2022/08/25 07:38:58;;;;;;;24.13;17.52;;;21.40;99.90;;;;;;4987713;28;20217;-71
2022/08/25 07:41:25;;;;;;;24.67;16.75;;;21.70;99.90;;;;;;4980768;28;20659;-68
2022/08/25 07:43:50;;;;;;;29.23;20.75;;;22.10;99.90;;;;;;4984971;28;20213;-69
2022/08/25 07:46:16;;;;;;;24.67;18.13;;;22.20;99.90;;;;;;4985669;28;20229;-70
2022/08/25 07:48:42;;;;;;;27.50;18.55;;;22.20;99.90;;;;;;4983859;28;20228;-71
2022/08/25 07:51:10;;;;;;;22.52;17.08;;;22.20;99.90;;;;;;4984102;28;20194;-68
2022/08/25 07:53:35;;;;;;;23.42;17.00;;;22.40;99.90;;;;;;4987123;28;20790;-69
2022/08/25 07:56:01;;;;;;;23.92;16.88;;;22.30;99.90;;;;;;4986020;28;20317;-69
2022/08/25 07:58:27;;;;;;;24.50;18.08;;;22.50;99.90;;;;;;4980710;28;20999;-70
2022/08/25 08:00:53;;;;;;;25.67;17.65;;;22.70;99.90;;;;;;4983288;28;20201;-70
2022/08/25 08:03:19;;;;;;;27.55;18.58;;;22.80;99.90;;;;;;4986218;28;20201;-69
2022/08/25 08:05:46;;;;;;;28.55;19.15;;;22.90;99.90;;;;;;4984789;28;20277;-68
2022/08/25 08:08:12;;;;;;;29.02;19.77;;;22.80;99.90;;;;;;4982942;28;20214;-69
2022/08/25 08:10:41;;;;;;;29.23;18.52;;;22.70;99.90;;;;;;4987605;28;20209;-68
2022/08/25 08:13:08;;;;;;;30.27;19.35;;;22.90;99.90;;;;;;4981759;28;20231;-69
2022/08/25 08:15:35;;;;;;;27.67;18.83;;;23.10;99.90;;;;;;4981049;28;20177;-70
2022/08/25 08:18:01;;;;;;;29.67;20.63;;;23.20;99.90;;;;;;4985940;28;20205;-70
2022/08/25 08:20:27;;;;;;;29.45;19.83;;;23.40;99.90;;;;;;4991273;28;20554;-69
2022/08/25 08:22:53;;;;;;;24.95;18.35;;;24.00;99.90;;;;;;5004153;28;20296;-69
2022/08/25 08:25:19;;;;;;;23.42;16.77;;;25.10;99.90;;;;;;5000586;28;20210;-69
2022/08/25 08:27:45;;;;;;;26.85;16.77;;;25.70;99.90;;;;;;4992204;28;20225;-67
2022/08/25 08:30:11;;;;;;;21.13;15.65;;;26.30;99.90;;;;;;4987341;28;20182;-68
2022/08/25 08:32:37;;;;;;;25.35;16.50;;;27.00;99.90;;;;;;4985807;28;20548;-69
2022/08/25 08:35:04;;;;;;;24.90;16.63;;;27.10;99.90;;;;;;4989416;28;20209;-68
2022/08/25 08:37:30;;;;;;;29.63;17.75;;;26.60;99.90;;;;;;4989263;28;20209;-68
2022/08/25 08:39:56;;;;;;;27.13;15.82;;;26.50;99.90;;;;;;4988076;28;20210;-68
2022/08/25 08:42:45;;;;;;;25.02;15.98;;;26.20;99.90;;;;;;4982175;28;20197;-69
2022/08/25 08:45:23;;;;;;;25.88;17.23;;;25.90;99.90;;;;;;5011160;28;20292;-70
2022/08/25 08:47:57;;;;;;;35.33;17.83;;;25.90;99.90;;;;;;5006769;28;20274;-70
2022/08/25 08:50:35;;;;;;;26.65;18.45;;;26.00;99.90;;;;;;5024720;28;20216;-70
2022/08/25 08:53:18;;;;;;;26.42;17.45;;;25.70;99.90;;;;;;5010907;28;20224;-69
2022/08/25 08:55:48;;;;;;;26.73;17.58;;;25.40;99.90;;;;;;5008470;28;20213;-71
2022/08/25 08:58:34;;;;;;;25.23;16.13;;;25.70;99.90;;;;;;5004406;28;20276;-71
2022/08/25 09:01:00;;;;;;;22.33;15.65;;;25.90;99.90;;;;;;5006162;28;20201;-71
2022/08/25 09:03:39;;;;;;;23.63;16.95;;;26.20;99.90;;;;;;5008068;28;20198;-70
2022/08/25 09:06:27;;;;;;;31.75;17.95;;;26.10;99.90;;;;;;5005701;28;20212;-73
2022/08/25 09:08:56;;;;;;;20.38;15.40;;;26.10;99.90;;;;;;5007380;28;20208;-70
2022/08/25 09:11:40;;;;;;;28.33;15.32;;;26.40;99.90;;;;;;5009169;28;20631;-71
2022/08/25 09:14:17;;;;;;;17.15;13.60;;;26.80;99.90;;;;;;5005527;28;20725;-74
2022/08/25 09:17:01;;;;;;;17.25;13.63;;;27.60;99.90;;;;;;5010625;28;20674;-74
2022/08/25 09:20:11;;;;;;;20.45;12.68;;;27.80;99.90;;;;;;5007223;28;20279;-73
2022/08/25 09:22:59;;;;;;;18.85;13.00;;;27.20;99.90;;;;;;5011928;28;20212;-73
2022/08/25 09:26:02;;;;;;;19.38;12.93;;;27.30;99.90;;;;;;4998888;28;20212;-70
2022/08/25 09:28:49;;;;;;;16.20;11.25;;;27.00;99.90;;;;;;4987887;28;20763;-70
2022/08/25 09:31:20;;;;;;;24.83;17.75;;;26.90;99.90;;;;;;5016412;28;20296;-71
2022/08/25 09:33:46;;;;;;;16.70;11.85;;;26.50;99.90;;;;;;4985131;28;20284;-71
2022/08/25 09:36:12;;;;;;;15.73;12.35;;;26.40;99.90;;;;;;4990993;28;20269;-69
2022/08/25 09:38:38;;;;;;;15.95;12.63;;;26.10;99.90;;;;;;4988062;28;20233;-70
2022/08/25 09:41:04;;;;;;;17.45;12.20;;;26.00;99.90;;;;;;4984299;28;20257;-70
2022/08/25 09:43:51;;;;;;;12.32;10.50;;;26.30;99.90;;;;;;4984864;28;20218;-70
2022/08/25 09:46:25;;;;;;;12.25;9.30;;;26.70;99.90;;;;;;4985413;28;20664;-70
2022/08/25 09:48:54;;;;;;;13.98;10.65;;;26.50;99.90;;;;;;4981139;28;20190;-70
2022/08/25 09:51:23;;;;;;;15.30;11.50;;;25.90;99.90;;;;;;4984715;28;20185;-70
2022/08/25 09:54:11;;;;;;;16.17;12.55;;;26.20;99.90;;;;;;5020788;28;20233;-71
2022/08/25 09:56:48;;;;;;;15.77;11.98;;;25.70;99.90;;;;;;5017007;28;20253;-71
2022/08/25 09:59:35;;;;;;;15.45;10.98;;;25.70;99.90;;;;;;4981497;28;20213;-70
2022/08/25 10:02:25;;;;;;;14.77;11.32;;;26.00;99.90;;;;;;4984308;28;20212;-71
2022/08/25 10:04:51;;;;;;;17.98;11.52;;;26.50;99.90;;;;;;4986450;28;20202;-70
2022/08/25 10:07:27;;;;;;;14.23;11.02;;;26.90;99.90;;;;;;4981656;28;20236;-71
2022/08/25 10:10:00;;;;;;;13.32;9.60;;;27.30;99.90;;;;;;4986852;28;20512;-71
2022/08/25 10:12:41;;;;;;;11.15;9.77;;;27.70;99.90;;;;;;4986021;28;20220;-70
2022/08/25 10:15:20;;;;;;;17.58;11.65;;;27.10;99.90;;;;;;5026128;23;20287;-71
2022/08/25 10:17:46;;;;;;;16.40;10.60;;;27.20;99.90;;;;;;5014373;28;20651;-69
2022/08/25 10:20:20;;;;;;;13.93;9.18;;;27.60;99.90;;;;;;5011684;28;20217;-70
2022/08/25 10:22:46;;;;;;;14.13;9.52;;;27.80;99.90;;;;;;5011489;28;20282;-71
2022/08/25 10:25:14;;;;;;;15.50;10.75;;;27.70;99.90;;;;;;5007767;28;20701;-71
2022/08/25 10:27:55;;;;;;;14.88;10.10;;;27.60;99.90;;;;;;5014671;28;20178;-71
2022/08/25 10:30:30;;;;;;;13.60;10.63;;;27.50;99.90;;;;;;5010833;28;20220;-67
2022/08/25 10:33:07;;;;;;;12.27;9.68;;;28.10;99.90;;;;;;5003747;28;20755;-70
2022/08/25 10:36:00;;;;;;;12.48;9.75;;;28.20;99.90;;;;;;5016353;28;20217;-71
2022/08/25 10:38:36;;;;;;;13.50;9.38;;;27.90;99.90;;;;;;5007852;28;20557;-71
2022/08/25 10:41:29;;;;;;;13.18;8.95;;;28.20;99.90;;;;;;5003923;28;20684;-71
2022/08/25 10:47:25;;;;;;;16.25;8.65;;;27.40;99.90;;;;;;5005648;28;20303;-70
2022/08/25 10:50:00;;;;;;;13.65;10.05;;;27.20;99.90;;;;;;5004196;28;20591;-71
2022/08/25 10:52:29;;;;;;;12.75;9.93;;;27.10;99.90;;;;;;5014323;28;20291;-70
2022/08/25 10:55:17;;;;;;;11.20;8.35;;;26.70;99.90;;;;;;5012873;28;20251;-71
2022/08/25 10:57:54;;;;;;;13.35;8.75;;;26.70;99.90;;;;;;5021820;28;20620;-70
2022/08/25 11:00:22;;;;;;;16.00;9.52;;;27.00;99.90;;;;;;5007054;28;20605;-70
2022/08/25 11:03:06;;;;;;;14.15;8.57;;;27.40;99.90;;;;;;5008661;28;20582;-70
2022/08/25 11:05:44;;;;;;;11.52;8.10;;;27.50;99.90;;;;;;5006115;28;20225;-70
2022/08/25 11:08:16;;;;;;;21.58;10.40;;;27.70;99.90;;;;;;5006849;28;20204;-70
2022/08/25 11:10:51;;;;;;;10.80;7.40;;;28.30;99.90;;;;;;5016138;28;20319;-70
2022/08/25 11:13:26;;;;;;;10.50;8.13;;;28.30;99.90;;;;;;5010089;28;20220;-71
2022/08/25 11:15:55;;;;;;;11.32;7.55;;;27.50;99.90;;;;;;5004332;28;20184;-70
2022/08/25 11:18:23;;;;;;;15.48;8.55;;;27.40;99.90;;;;;;5012312;28;20177;-70
2022/08/25 11:21:05;;;;;;;12.80;8.63;;;27.40;99.90;;;;;;5013199;28;20593;-70
2022/08/25 11:23:40;;;;;;;15.55;8.40;;;27.10;99.90;;;;;;5022384;28;20265;-70
2022/08/25 11:26:18;;;;;;;9.18;7.80;;;27.00;99.90;;;;;;5006099;28;20699;-70
2022/08/25 11:29:20;;;;;;;11.48;7.88;;;27.10;99.90;;;;;;5011305;28;20200;-69
2022/08/25 11:31:49;;;;;;;11.43;7.80;;;27.40;99.90;;;;;;5004530;28;20239;-70
2022/08/25 11:34:15;;;;;;;13.25;8.02;;;27.30;99.90;;;;;;5006783;28;20274;-70
2022/08/25 11:36:56;;;;;;;12.48;8.45;;;27.40;99.90;;;;;;5015400;28;20594;-70
2022/08/25 11:39:25;;;;;;;11.73;7.85;;;27.10;99.90;;;;;;5006664;28;20218;-70
2022/08/25 11:42:05;;;;;;;13.88;7.43;;;26.90;99.90;;;;;;5003848;28;20291;-70
2022/08/25 11:45:05;;;;;;;9.85;7.93;;;27.10;99.90;;;;;;5014357;28;20209;-69
2022/08/25 11:47:53;;;;;;;11.95;7.32;;;27.50;99.90;;;;;;5008481;28;20209;-70
2022/08/25 11:50:22;;;;;;;14.82;8.07;;;27.90;99.90;;;;;;5000675;28;20214;-70
2022/08/25 11:52:52;;;;;;;10.95;7.45;;;27.60;99.90;;;;;;5008015;28;20216;-70
2022/08/25 11:55:52;;;;;;;12.45;7.80;;;27.60;99.90;;;;;;5011977;28;20220;-70
2022/08/25 11:58:24;;;;;;;10.25;7.82;;;27.60;99.90;;;;;;5004001;28;20209;-69
2022/08/25 12:00:49;;;;;;;15.57;8.00;;;27.50;99.90;;;;;;5017226;28;20246;-70
2022/08/25 12:03:33;;;;;;;15.48;8.40;;;27.60;99.90;;;;;;5015113;28;20181;-70
2022/08/25 12:06:18;;;;;;;10.70;7.35;;;27.30;99.90;;;;;;5008573;28;20211;-70
2022/08/25 12:08:59;;;;;;;12.95;6.75;;;27.50;99.90;;;;;;5014569;28;20200;-70
2022/08/25 12:11:36;;;;;;;10.05;6.10;;;27.80;99.90;;;;;;5014003;28;20197;-70
2022/08/25 12:14:17;;;;;;;14.82;7.60;;;28.00;99.90;;;;;;5009170;28;20270;-69
2022/08/25 12:16:55;;;;;;;11.98;6.75;;;28.20;99.90;;;;;;5009661;28;20211;-70
2022/08/25 12:19:35;;;;;;;13.95;7.38;;;28.60;99.90;;;;;;5013789;28;20403;-70
2022/08/25 12:22:01;;;;;;;12.73;7.43;;;28.30;99.90;;;;;;5010156;28;20526;-69
2022/08/25 12:24:41;;;;;;;13.48;6.97;;;28.50;99.90;;;;;;5008166;28;20205;-69
2022/08/25 12:27:19;;;;;;;16.65;8.02;;;28.50;99.90;;;;;;5015291;28;20224;-69
2022/08/25 12:30:29;;;;;;;14.48;7.47;;;28.10;99.90;;;;;;5015222;28;20228;-70
2022/08/25 12:33:06;;;;;;;13.10;7.53;;;27.50;99.90;;;;;;5006534;28;20212;-70
2022/08/25 12:35:53;;;;;;;13.40;7.55;;;27.10;99.90;;;;;;5014479;28;20301;-70
2022/08/25 12:38:51;;;;;;;14.73;7.57;;;27.10;99.90;;;;;;5010903;28;20678;-69
2022/08/25 12:41:24;;;;;;;15.27;7.95;;;27.10;99.90;;;;;;5006935;28;20236;-70
2022/08/25 12:43:53;;;;;;;12.50;7.40;;;27.00;99.90;;;;;;5011818;28;20220;-69
2022/08/25 12:46:21;;;;;;;12.35;7.60;;;27.40;99.90;;;;;;5011662;28;20209;-69
2022/08/25 12:49:10;;;;;;;16.05;7.43;;;27.60;99.90;;;;;;5006728;28;20615;-69
2022/08/25 12:51:39;;;;;;;14.80;6.93;;;27.80;99.90;;;;;;5013852;28;20187;-69
2022/08/25 12:54:33;;;;;;;13.38;7.25;;;28.00;99.90;;;;;;5016623;28;20205;-69
2022/08/25 12:57:02;;;;;;;14.73;7.10;;;28.30;99.90;;;;;;5010169;28;20282;-69
2022/08/25 12:59:40;;;;;;;16.27;7.60;;;28.20;99.90;;;;;;5010905;28;20217;-68